createdAt,value
2018-12-04T00:00:52.059Z,20.25
2018-12-04T00:01:52.391Z,20.22
2018-12-04T00:03:52.204Z,20.25
2018-12-04T00:04:52.193Z,20.27
2018-12-04T00:05:52.227Z,20.25
2018-12-04T00:08:52.330Z,20.20
2018-12-04T00:13:52.826Z,20.17
2018-12-04T00:14:52.512Z,20.15
2018-12-04T00:15:52.689Z,20.15
2018-12-04T00:16:52.633Z,20.16
2018-12-04T00:17:52.653Z,20.15
2018-12-04T00:18:52.645Z,20.12
2018-12-04T00:19:52.670Z,20.22
2018-12-04T00:20:52.993Z,20.16
2018-12-04T00:21:52.794Z,20.16
2018-12-04T00:22:52.808Z,20.17
2018-12-04T00:24:52.873Z,20.13
2018-12-04T00:25:52.907Z,20.16
2018-12-04T00:26:52.889Z,20.16
2018-12-04T00:27:53.217Z,20.12
2018-12-04T00:28:52.959Z,20.15
2018-12-04T00:29:53.036Z,20.20
2018-12-04T00:31:53.099Z,20.16
2018-12-04T00:32:53.075Z,20.17
2018-12-04T00:33:53.105Z,20.16
2018-12-04T00:36:53.502Z,20.16
2018-12-04T00:38:53.316Z,20.15
2018-12-04T00:39:53.356Z,20.16
2018-12-04T00:40:53.383Z,20.17
2018-12-04T00:41:53.365Z,20.17
2018-12-04T00:44:53.560Z,20.10
2018-12-04T00:46:53.574Z,20.19
2018-12-04T00:47:53.609Z,20.15
2018-12-04T00:49:53.920Z,20.08
2018-12-04T00:51:53.736Z,20.16
2018-12-04T00:52:53.738Z,20.15
2018-12-04T00:55:53.825Z,20.05
2018-12-04T00:56:54.202Z,20.04
2018-12-04T00:57:53.921Z,20.07
2018-12-04T00:58:53.910Z,20.12
2018-12-04T00:59:53.942Z,20.05
2018-12-04T01:02:54.111Z,20.08
2018-12-04T01:03:54.367Z,20.10
2018-12-04T01:04:54.151Z,20.04
2018-12-04T01:05:54.185Z,20.05
2018-12-04T01:07:54.191Z,20.02
2018-12-04T01:09:54.309Z,20.01
2018-12-04T01:10:54.600Z,20.07
2018-12-04T01:11:54.318Z,20.04
2018-12-04T01:12:54.409Z,20.01
2018-12-04T01:13:54.432Z,20.08
2018-12-04T01:15:54.500Z,20.12
2018-12-04T01:16:54.525Z,20.02
2018-12-04T01:17:54.808Z,20.02
2018-12-04T01:18:54.590Z,20.02
2018-12-04T01:20:54.609Z,20.02
2018-12-04T01:21:54.690Z,20.00
2018-12-04T01:22:54.679Z,20.05
2018-12-04T01:23:54.724Z,20.02
2018-12-04T01:25:55.114Z,20.00
2018-12-04T01:26:54.845Z,19.95
2018-12-04T01:27:54.833Z,19.87
2018-12-04T01:28:54.881Z,20.00
2018-12-04T01:29:54.937Z,19.94
2018-12-04T01:30:54.980Z,20.05
2018-12-04T01:31:54.960Z,20.02
2018-12-04T01:32:55.290Z,19.90
2018-12-04T01:34:55.100Z,20.00
2018-12-04T01:36:55.178Z,19.98
2018-12-04T01:37:55.199Z,19.95
2018-12-04T01:41:55.577Z,19.90
2018-12-04T01:42:55.353Z,19.94
2018-12-04T01:43:55.388Z,19.90
2018-12-04T01:44:55.436Z,19.92
2018-12-04T01:46:55.478Z,19.95
2018-12-04T01:48:55.548Z,19.98
2018-12-04T01:49:55.824Z,19.92
2018-12-04T01:52:55.675Z,19.90
2018-12-04T01:53:55.708Z,19.94
2018-12-04T01:54:55.731Z,19.90
2018-12-04T01:55:56.068Z,19.94
2018-12-04T01:57:55.831Z,19.92
2018-12-04T01:59:55.850Z,19.90
2018-12-04T02:00:55.961Z,19.95
2018-12-04T02:01:55.969Z,19.89
2018-12-04T02:02:56.243Z,19.89
2018-12-04T02:04:56.069Z,19.95
2018-12-04T02:05:56.092Z,19.94
2018-12-04T02:06:56.121Z,19.94
2018-12-04T02:07:56.098Z,19.87
2018-12-04T02:08:56.185Z,19.94
2018-12-04T02:09:56.460Z,19.95
2018-12-04T02:10:56.244Z,19.92
2018-12-04T02:11:56.277Z,19.94
2018-12-04T02:13:56.341Z,19.94
2018-12-04T02:14:56.371Z,19.94
2018-12-04T02:15:56.362Z,19.87
2018-12-04T02:17:56.774Z,19.90
2018-12-04T02:18:56.452Z,19.95
2018-12-04T02:19:56.535Z,19.90
2018-12-04T02:21:56.588Z,19.92
2018-12-04T02:22:56.625Z,19.95
2018-12-04T02:23:56.617Z,19.90
2018-12-04T02:24:56.989Z,19.87
2018-12-04T02:25:56.724Z,19.92
2018-12-04T02:26:56.707Z,19.92
2018-12-04T02:27:56.782Z,19.94
2018-12-04T02:28:56.766Z,19.86
2018-12-04T02:30:56.922Z,19.95
2018-12-04T02:31:57.162Z,19.94
2018-12-04T02:32:56.955Z,19.95
2018-12-04T02:33:56.978Z,19.92
2018-12-04T02:34:57.006Z,19.90
2018-12-04T02:36:57.071Z,19.86
2018-12-04T02:38:57.128Z,19.90
2018-12-04T02:39:57.419Z,19.92
2018-12-04T02:40:57.144Z,19.95
2018-12-04T02:41:57.230Z,19.95
2018-12-04T02:42:57.254Z,19.95
2018-12-04T02:43:57.244Z,19.90
2018-12-04T02:44:57.326Z,19.94
2018-12-04T02:45:57.355Z,19.90
2018-12-04T02:46:57.686Z,19.97
2018-12-04T02:47:57.412Z,19.90
2018-12-04T02:48:57.443Z,19.90
2018-12-04T02:49:57.425Z,19.94
2018-12-04T02:50:57.525Z,19.90
2018-12-04T02:51:57.545Z,19.87
2018-12-04T02:53:57.565Z,19.94
2018-12-04T02:54:57.886Z,19.94
2018-12-04T02:57:57.737Z,19.94
2018-12-04T02:58:57.721Z,19.94
2018-12-04T02:59:57.803Z,19.95
2018-12-04T03:00:58.143Z,19.90
2018-12-04T03:03:57.922Z,19.90
2018-12-04T03:04:57.952Z,19.94
2018-12-04T03:05:57.985Z,19.87
2018-12-04T03:06:57.969Z,19.92
2018-12-04T03:07:58.304Z,19.92
2018-12-04T03:08:58.083Z,19.92
2018-12-04T03:09:58.114Z,19.94
2018-12-04T03:13:58.231Z,19.90
2018-12-04T03:14:58.528Z,19.97
2018-12-04T03:16:58.358Z,19.92
2018-12-04T03:17:58.369Z,19.86
2018-12-04T03:19:58.391Z,19.92
2018-12-04T03:21:58.497Z,19.90
2018-12-04T03:22:58.772Z,19.90
2018-12-04T03:23:58.562Z,19.97
2018-12-04T03:24:58.621Z,19.94
2018-12-04T03:25:58.624Z,19.90
2018-12-04T03:27:58.692Z,19.87
2018-12-04T03:28:58.718Z,19.92
2018-12-04T03:30:59.029Z,19.87
2018-12-04T03:31:58.814Z,19.94
2018-12-04T03:32:58.853Z,19.97
2018-12-04T03:33:58.877Z,19.87
2018-12-04T03:34:58.856Z,19.90
2018-12-04T03:35:58.939Z,19.92
2018-12-04T03:36:58.976Z,19.90
2018-12-04T03:37:59.254Z,19.92
2018-12-04T03:38:59.045Z,19.90
2018-12-04T03:39:59.021Z,19.92
2018-12-04T03:40:59.104Z,19.94
2018-12-04T03:41:59.092Z,19.90
2018-12-04T03:42:59.114Z,19.89
2018-12-04T03:44:59.236Z,19.83
2018-12-04T03:45:59.506Z,19.87
2018-12-04T03:46:59.290Z,19.94
2018-12-04T03:47:59.319Z,19.89
2018-12-04T03:48:59.352Z,19.97
2018-12-04T03:49:59.337Z,19.90
2018-12-04T03:50:59.423Z,19.92
2018-12-04T03:51:59.697Z,19.90
2018-12-04T03:55:59.526Z,19.87
2018-12-04T03:56:59.601Z,19.90
2018-12-04T03:57:59.636Z,19.94
2018-12-04T03:59:00.065Z,19.92
2018-12-04T03:59:59.649Z,19.89
2018-12-04T04:00:59.734Z,19.95
2018-12-04T04:01:59.764Z,19.90
2018-12-04T04:02:59.741Z,19.92
2018-12-04T04:04:59.811Z,19.92
2018-12-04T04:06:00.138Z,19.97
2018-12-04T04:06:59.936Z,19.89
2018-12-04T04:07:59.950Z,19.87
2018-12-04T04:09:00.086Z,19.89
2018-12-04T04:09:59.965Z,19.87
2018-12-04T04:11:00.048Z,19.95
2018-12-04T04:13:00.112Z,19.95
2018-12-04T04:14:00.393Z,19.92
2018-12-04T04:15:00.173Z,19.92
2018-12-04T04:16:00.209Z,19.92
2018-12-04T04:17:00.238Z,19.89
2018-12-04T04:19:00.294Z,19.94
2018-12-04T04:20:00.340Z,19.87
2018-12-04T04:22:00.692Z,19.90
2018-12-04T04:23:00.435Z,19.90
2018-12-04T04:25:00.492Z,19.86
2018-12-04T04:27:00.505Z,19.90
2018-12-04T04:28:00.843Z,19.92
2018-12-04T04:31:00.684Z,19.90
2018-12-04T04:32:00.678Z,19.94
2018-12-04T04:34:00.789Z,19.90
2018-12-04T04:35:00.813Z,19.92
2018-12-04T04:36:00.844Z,19.85
2018-12-04T04:37:00.863Z,19.87
2018-12-04T04:38:00.861Z,19.89
2018-12-04T04:45:01.127Z,19.90
2018-12-04T04:46:01.466Z,19.92
2018-12-04T04:47:01.131Z,19.89
2018-12-04T04:50:01.284Z,19.92
2018-12-04T04:52:01.298Z,19.85
2018-12-04T04:53:01.679Z,19.85
2018-12-04T04:54:01.403Z,19.87
2018-12-04T04:55:01.395Z,19.86
2018-12-04T04:56:01.422Z,19.86
2018-12-04T04:58:01.531Z,19.92
2018-12-04T05:00:01.549Z,19.92
2018-12-04T05:01:01.577Z,19.82
2018-12-04T05:02:01.668Z,19.89
2018-12-04T05:03:01.685Z,19.85
2018-12-04T05:04:01.674Z,19.83
2018-12-04T05:05:02.119Z,19.86
2018-12-04T05:06:01.793Z,19.87
2018-12-04T05:07:01.821Z,19.87
2018-12-04T05:08:01.796Z,19.90
2018-12-04T05:09:01.877Z,19.89
2018-12-04T05:10:01.912Z,19.89
2018-12-04T05:11:01.898Z,19.92
2018-12-04T05:12:02.279Z,19.82
2018-12-04T05:13:02.009Z,19.90
2018-12-04T05:14:01.986Z,19.94
2018-12-04T05:15:02.070Z,19.87
2018-12-04T05:16:02.061Z,19.83
2018-12-04T05:17:02.139Z,19.90
2018-12-04T05:18:02.160Z,19.86
2018-12-04T05:19:02.442Z,19.85
2018-12-04T05:20:02.190Z,19.89
2018-12-04T05:21:02.210Z,19.90
2018-12-04T05:22:02.306Z,19.92
2018-12-04T05:23:02.289Z,19.79
2018-12-04T05:26:02.379Z,19.87
2018-12-04T05:27:02.704Z,19.83
2018-12-04T05:28:02.481Z,19.86
2018-12-04T05:29:02.564Z,19.80
2018-12-04T05:30:02.545Z,19.86
2018-12-04T05:31:02.526Z,19.83
2018-12-04T05:32:02.613Z,19.92
2018-12-04T05:33:02.652Z,19.86
2018-12-04T05:34:02.978Z,19.78
2018-12-04T05:35:02.721Z,19.80
2018-12-04T05:37:02.826Z,19.78
2018-12-04T05:38:02.801Z,19.87
2018-12-04T05:40:02.810Z,19.80
2018-12-04T05:41:03.148Z,19.85
2018-12-04T05:42:02.875Z,19.82
2018-12-04T05:43:02.950Z,19.82
2018-12-04T05:45:03.021Z,19.79
2018-12-04T05:46:03.012Z,19.86
2018-12-04T05:47:03.025Z,19.83
2018-12-04T05:49:03.093Z,19.78
2018-12-04T05:50:03.270Z,19.82
2018-12-04T05:51:03.170Z,19.78
2018-12-04T05:52:03.235Z,19.82
2018-12-04T05:53:03.265Z,19.80
2018-12-04T05:54:03.557Z,19.83
2018-12-04T05:55:03.332Z,19.79
2018-12-04T05:57:03.405Z,19.82
2018-12-04T05:58:03.429Z,19.86
2018-12-04T05:59:03.411Z,19.87
2018-12-04T06:00:03.486Z,19.85
2018-12-04T06:01:03.772Z,19.86
2018-12-04T06:02:03.504Z,19.79
2018-12-04T06:03:03.590Z,19.79
2018-12-04T06:04:03.567Z,19.80
2018-12-04T06:05:03.603Z,19.82
2018-12-04T06:06:03.732Z,19.80
2018-12-04T06:07:03.714Z,19.76
2018-12-04T06:08:04.045Z,19.80
2018-12-04T06:09:03.771Z,19.82
2018-12-04T06:12:03.868Z,19.82
2018-12-04T06:13:03.849Z,19.76
2018-12-04T06:14:03.938Z,19.83
2018-12-04T06:15:04.225Z,19.78
2018-12-04T06:16:03.948Z,19.82
2018-12-04T06:17:04.147Z,19.71
2018-12-04T06:18:04.007Z,19.76
2018-12-04T06:19:04.094Z,19.75
2018-12-04T06:20:04.070Z,19.76
2018-12-04T06:21:04.155Z,19.79
2018-12-04T06:22:04.438Z,19.71
2018-12-04T06:23:04.216Z,19.75
2018-12-04T06:24:04.193Z,19.78
2018-12-04T06:25:04.240Z,19.72
2018-12-04T06:26:04.379Z,19.72
2018-12-04T06:27:04.294Z,19.68
2018-12-04T06:28:04.374Z,19.76
2018-12-04T06:29:04.755Z,19.79
2018-12-04T06:30:04.458Z,19.75
2018-12-04T06:31:04.421Z,19.75
2018-12-04T06:32:04.454Z,19.70
2018-12-04T06:33:04.526Z,19.72
2018-12-04T06:34:04.567Z,19.64
2018-12-04T06:35:04.590Z,19.76
2018-12-04T06:36:04.587Z,19.79
2018-12-04T06:38:04.683Z,19.71
2018-12-04T06:39:04.832Z,19.80
2018-12-04T06:40:04.699Z,19.71
2018-12-04T06:41:05.084Z,19.79
2018-12-04T06:42:04.815Z,19.76
2018-12-04T06:43:04.804Z,19.68
2018-12-04T06:44:04.827Z,19.65
2018-12-04T06:45:04.891Z,19.65
2018-12-04T06:46:05.031Z,19.75
2018-12-04T06:47:04.919Z,19.67
2018-12-04T06:50:06.523Z,19.67
2018-12-04T06:51:05.096Z,19.72
2018-12-04T06:52:05.142Z,19.68
2018-12-04T06:53:05.466Z,19.64
2018-12-04T06:54:05.151Z,19.64
2018-12-04T06:55:05.284Z,19.65
2018-12-04T06:56:05.321Z,19.67
2018-12-04T06:57:05.253Z,19.68
2018-12-04T06:58:05.317Z,19.68
2018-12-04T06:59:05.368Z,19.68
2018-12-04T07:00:05.627Z,19.68
2018-12-04T07:01:05.418Z,19.62
2018-12-04T07:02:05.454Z,19.62
2018-12-04T07:03:05.438Z,19.60
2018-12-04T07:04:05.454Z,19.64
2018-12-04T07:05:05.840Z,19.60
2018-12-04T07:06:05.537Z,19.64
2018-12-04T07:07:05.614Z,19.62
2018-12-04T07:08:05.577Z,19.55
2018-12-04T07:09:05.618Z,19.57
2018-12-04T07:10:05.702Z,19.67
2018-12-04T07:11:05.675Z,19.58
2018-12-04T07:12:05.709Z,19.62
2018-12-04T07:13:06.034Z,19.60
2018-12-04T07:14:05.827Z,19.58
2018-12-04T07:15:05.845Z,19.58
2018-12-04T07:16:05.850Z,19.57
2018-12-04T07:17:05.919Z,19.57
2018-12-04T07:18:05.968Z,19.53
2018-12-04T07:19:05.987Z,19.57
2018-12-04T07:20:06.315Z,19.52
2018-12-04T07:21:05.995Z,19.67
2018-12-04T07:22:06.063Z,19.67
2018-12-04T07:23:06.047Z,19.57
2018-12-04T07:24:06.091Z,19.62
2018-12-04T07:25:06.110Z,19.50
2018-12-04T07:26:06.194Z,19.61
2018-12-04T07:27:06.179Z,19.50
2018-12-04T07:28:06.214Z,19.61
2018-12-04T07:29:06.292Z,19.61
2018-12-04T07:30:06.325Z,19.47
2018-12-04T07:31:06.356Z,19.58
2018-12-04T07:32:06.380Z,19.47
2018-12-04T07:33:06.368Z,19.55
2018-12-04T07:34:06.397Z,19.55
2018-12-04T07:35:06.437Z,19.58
2018-12-04T07:36:06.562Z,19.58
2018-12-04T07:37:06.491Z,19.57
2018-12-04T07:38:06.542Z,19.60
2018-12-04T07:39:06.854Z,19.55
2018-12-04T07:40:06.614Z,19.57
2018-12-04T07:41:06.620Z,19.62
2018-12-04T07:42:06.705Z,19.60
2018-12-04T07:43:06.682Z,19.62
2018-12-04T07:44:06.765Z,19.50
2018-12-04T07:45:07.044Z,19.57
2018-12-04T07:46:06.826Z,19.57
2018-12-04T07:47:06.807Z,19.58
2018-12-04T07:48:06.886Z,19.65
2018-12-04T07:49:06.968Z,19.60
2018-12-04T07:50:06.943Z,19.60
2018-12-04T07:51:06.931Z,19.57
2018-12-04T07:52:07.263Z,19.62
2018-12-04T07:53:06.995Z,19.60
2018-12-04T07:54:07.025Z,19.62
2018-12-04T07:55:07.110Z,19.58
2018-12-04T07:56:07.084Z,19.61
2018-12-04T07:57:07.122Z,19.64
2018-12-04T07:58:07.153Z,19.58
2018-12-04T07:59:07.491Z,19.52
2018-12-04T08:00:07.265Z,19.62
2018-12-04T08:01:07.298Z,19.60
2018-12-04T08:02:07.274Z,19.61
2018-12-04T08:03:07.309Z,19.65
2018-12-04T08:04:07.335Z,19.60
2018-12-04T08:05:07.392Z,19.61
2018-12-04T08:06:07.476Z,19.61
2018-12-04T08:07:07.433Z,19.58
2018-12-04T08:08:07.543Z,19.68
2018-12-04T08:10:07.529Z,19.70
2018-12-04T08:11:07.612Z,19.61
2018-12-04T08:12:07.939Z,19.61
2018-12-04T08:13:07.632Z,19.65
2018-12-04T08:14:07.706Z,19.64
2018-12-04T08:15:07.686Z,19.65
2018-12-04T08:16:07.768Z,19.64
2018-12-04T08:17:07.801Z,19.64
2018-12-04T08:19:08.120Z,19.64
2018-12-04T08:20:07.843Z,19.65
2018-12-04T08:21:07.876Z,19.60
2018-12-04T08:22:07.901Z,19.67
2018-12-04T08:23:07.984Z,19.58
2018-12-04T08:24:07.968Z,19.55
2018-12-04T08:25:07.998Z,19.68
2018-12-04T08:26:08.378Z,19.57
2018-12-04T08:27:08.074Z,19.65
2018-12-04T08:28:08.139Z,19.65
2018-12-04T08:29:08.170Z,19.64
2018-12-04T08:30:08.156Z,19.62
2018-12-04T08:31:08.189Z,19.64
2018-12-04T08:32:08.221Z,19.68
2018-12-04T08:33:08.298Z,19.71
2018-12-04T08:34:08.328Z,19.67
2018-12-04T08:35:08.329Z,19.60
2018-12-04T08:36:08.350Z,19.64
2018-12-04T08:37:08.379Z,19.72
2018-12-04T08:38:08.410Z,19.60
2018-12-04T08:39:13.027Z,19.58
2018-12-04T08:40:08.525Z,19.61
2018-12-04T08:41:08.506Z,19.68
2018-12-04T08:42:08.589Z,19.72
2018-12-04T08:43:08.624Z,19.67
2018-12-04T08:45:08.983Z,19.68
2018-12-04T08:46:08.660Z,19.76
2018-12-04T08:47:08.736Z,19.75
2018-12-04T08:48:08.770Z,19.70
2018-12-04T08:49:08.753Z,19.70
2018-12-04T08:50:08.857Z,19.71
2018-12-04T08:51:08.820Z,19.70
2018-12-04T08:52:08.858Z,19.72
2018-12-04T08:53:08.981Z,19.75
2018-12-04T08:54:08.962Z,19.67
2018-12-04T08:55:08.942Z,19.72
2018-12-04T08:56:08.978Z,19.70
2018-12-04T08:58:09.041Z,19.67
2018-12-04T08:59:09.118Z,19.79
2018-12-04T09:00:09.115Z,19.75
2018-12-04T09:01:09.180Z,19.72
2018-12-04T09:02:09.213Z,19.70
2018-12-04T09:03:09.243Z,19.76
2018-12-04T09:04:09.280Z,19.75
2018-12-04T09:05:09.344Z,19.72
2018-12-04T09:06:09.291Z,19.72
2018-12-04T09:07:09.366Z,19.78
2018-12-04T09:08:09.633Z,19.76
2018-12-04T09:09:09.692Z,19.78
2018-12-04T09:10:09.468Z,19.75
2018-12-04T09:11:09.497Z,19.78
2018-12-04T09:12:09.498Z,19.79
2018-12-04T09:13:09.565Z,19.72
2018-12-04T09:14:09.700Z,19.68
2018-12-04T09:15:09.929Z,19.75
2018-12-04T09:16:09.608Z,19.72
2018-12-04T09:17:09.650Z,19.82
2018-12-04T09:18:09.724Z,19.85
2018-12-04T09:19:09.725Z,19.75
2018-12-04T09:20:09.790Z,19.75
2018-12-04T09:21:10.069Z,19.79
2018-12-04T09:22:09.888Z,19.76
2018-12-04T09:23:09.904Z,19.78
2018-12-04T09:24:09.868Z,19.70
2018-12-04T09:25:09.987Z,19.79
2018-12-04T09:26:09.992Z,19.79
2018-12-04T09:27:10.295Z,19.72
2018-12-04T09:28:10.063Z,19.76
2018-12-04T09:29:10.137Z,19.82
2018-12-04T09:30:10.084Z,19.70
2018-12-04T09:31:10.129Z,19.75
2018-12-04T09:32:10.163Z,19.75
2018-12-04T09:33:10.144Z,19.79
2018-12-04T09:34:10.469Z,19.79
2018-12-04T09:35:10.208Z,19.76
2018-12-04T09:36:10.296Z,19.68
2018-12-04T09:38:10.294Z,19.76
2018-12-04T09:39:10.329Z,19.79
2018-12-04T09:40:10.364Z,19.80
2018-12-04T09:41:10.692Z,19.79
2018-12-04T09:42:10.475Z,19.79
2018-12-04T09:43:10.465Z,19.78
2018-12-04T09:44:10.541Z,19.80
2018-12-04T09:45:10.517Z,19.80
2018-12-04T09:46:10.551Z,19.80
2018-12-04T09:47:10.594Z,19.80
2018-12-04T09:48:10.916Z,19.78
2018-12-04T09:49:10.653Z,19.79
2018-12-04T09:50:10.723Z,19.86
2018-12-04T09:51:10.724Z,19.80
2018-12-04T09:52:10.746Z,19.80
2018-12-04T09:53:10.839Z,19.76
2018-12-04T09:54:10.855Z,19.76
2018-12-04T09:55:11.138Z,19.76
2018-12-04T09:56:10.915Z,19.78
2018-12-04T09:57:10.901Z,19.80
2018-12-04T09:58:10.933Z,19.76
2018-12-04T09:59:11.045Z,19.76
2018-12-04T10:00:10.996Z,19.79
2018-12-04T10:01:11.030Z,19.83
2018-12-04T10:02:11.382Z,19.79
2018-12-04T10:03:11.092Z,19.87
2018-12-04T10:04:11.118Z,19.85
2018-12-04T10:05:11.209Z,19.86
2018-12-04T10:06:11.236Z,19.80
2018-12-04T10:07:11.217Z,19.78
2018-12-04T10:08:11.301Z,19.80
2018-12-04T10:09:11.284Z,19.79
2018-12-04T10:10:11.363Z,19.76
2018-12-04T10:11:11.338Z,19.78
2018-12-04T10:12:11.382Z,19.85
2018-12-04T10:13:11.456Z,19.82
2018-12-04T10:14:11.488Z,19.80
2018-12-04T10:15:11.769Z,19.87
2018-12-04T10:16:11.503Z,19.80
2018-12-04T10:17:11.544Z,19.83
2018-12-04T10:18:11.578Z,19.80
2018-12-04T10:19:11.661Z,19.79
2018-12-04T10:20:11.622Z,19.89
2018-12-04T10:21:11.655Z,19.90
2018-12-04T10:22:11.997Z,19.85
2018-12-04T10:23:11.726Z,19.86
2018-12-04T10:24:11.769Z,19.90
2018-12-04T10:25:11.783Z,19.83
2018-12-04T10:26:11.863Z,19.85
2018-12-04T10:27:11.849Z,19.90
2018-12-04T10:28:11.928Z,19.92
2018-12-04T10:29:12.211Z,19.89
2018-12-04T10:30:11.998Z,19.89
2018-12-04T10:31:12.022Z,19.90
2018-12-04T10:32:12.058Z,19.87
2018-12-04T10:33:12.091Z,19.85
2018-12-04T10:34:12.068Z,19.94
2018-12-04T10:35:12.097Z,19.87
2018-12-04T10:36:12.433Z,19.90
2018-12-04T10:37:12.162Z,19.89
2018-12-04T10:38:12.267Z,19.90
2018-12-04T10:39:12.225Z,19.97
2018-12-04T10:40:12.256Z,19.90
2018-12-04T10:41:12.296Z,19.92
2018-12-04T10:42:12.386Z,19.87
2018-12-04T10:43:12.359Z,19.86
2018-12-04T10:44:12.444Z,19.90
2018-12-04T10:45:12.418Z,19.92
2018-12-04T10:46:12.498Z,19.83
2018-12-04T10:47:12.536Z,19.90
2018-12-04T10:48:12.511Z,19.89
2018-12-04T10:49:12.597Z,19.87
2018-12-04T10:50:12.581Z,19.92
2018-12-04T10:51:12.605Z,19.94
2018-12-04T10:52:12.693Z,19.97
2018-12-04T10:53:12.682Z,19.94
2018-12-04T10:54:13.057Z,19.94
2018-12-04T10:55:12.736Z,19.90
2018-12-04T10:56:12.769Z,19.90
2018-12-04T10:57:12.845Z,19.89
2018-12-04T10:58:12.875Z,19.89
2018-12-04T10:59:12.913Z,19.89
2018-12-04T11:00:12.893Z,19.90
2018-12-04T11:01:12.943Z,19.90
2018-12-04T11:02:13.004Z,19.89
2018-12-04T11:03:12.983Z,19.90
2018-12-04T11:04:13.020Z,19.90
2018-12-04T11:05:13.104Z,19.89
2018-12-04T11:06:13.134Z,19.90
2018-12-04T11:07:13.465Z,19.94
2018-12-04T11:08:13.145Z,19.86
2018-12-04T11:09:13.185Z,19.89
2018-12-04T11:10:13.266Z,19.87
2018-12-04T11:11:13.237Z,19.90
2018-12-04T11:12:13.324Z,19.92
2018-12-04T11:13:13.366Z,19.92
2018-12-04T11:14:13.641Z,19.94
2018-12-04T11:15:13.420Z,19.92
2018-12-04T11:16:13.400Z,19.94
2018-12-04T11:17:13.488Z,19.89
2018-12-04T11:18:13.512Z,19.94
2018-12-04T11:19:13.490Z,19.90
2018-12-04T11:20:13.522Z,19.89
2018-12-04T11:21:13.607Z,19.90
2018-12-04T11:22:13.641Z,19.89
2018-12-04T11:23:13.624Z,19.89
2018-12-04T11:24:13.650Z,19.87
2018-12-04T11:25:13.768Z,19.89
2018-12-04T11:26:13.711Z,19.90
2018-12-04T11:27:14.116Z,19.92
2018-12-04T11:28:13.783Z,19.90
2018-12-04T11:29:13.881Z,19.89
2018-12-04T11:30:13.894Z,19.95
2018-12-04T11:31:13.994Z,19.90
2018-12-04T11:32:13.969Z,19.89
2018-12-04T11:33:13.988Z,19.90
2018-12-04T11:34:14.071Z,19.97
2018-12-04T11:35:14.003Z,19.89
2018-12-04T11:36:14.092Z,19.85
2018-12-04T11:37:14.066Z,19.94
2018-12-04T11:38:14.145Z,19.87
2018-12-04T11:39:14.136Z,19.94
2018-12-04T11:40:14.208Z,19.90
2018-12-04T11:41:14.241Z,19.89
2018-12-04T11:42:14.222Z,19.97
2018-12-04T11:43:14.271Z,19.90
2018-12-04T11:44:14.286Z,19.92
2018-12-04T11:45:14.632Z,19.87
2018-12-04T11:46:14.404Z,19.87
2018-12-04T11:47:14.392Z,19.86
2018-12-04T11:48:14.467Z,19.94
2018-12-04T11:49:14.475Z,19.94
2018-12-04T11:50:14.478Z,19.89
2018-12-04T11:51:14.519Z,19.89
2018-12-04T11:52:14.844Z,19.90
2018-12-04T11:53:14.627Z,19.86
2018-12-04T11:54:14.656Z,19.89
2018-12-04T11:55:14.638Z,19.95
2018-12-04T11:56:14.671Z,19.89
2018-12-04T11:57:14.752Z,19.90
2018-12-04T11:58:14.777Z,19.86
2018-12-04T11:59:15.061Z,19.85
2018-12-04T12:00:14.862Z,19.89
2018-12-04T12:01:14.887Z,19.86
2018-12-04T12:02:14.850Z,19.94
2018-12-04T12:03:14.935Z,19.92
2018-12-04T12:04:14.918Z,19.95
2018-12-04T12:05:15.025Z,19.86
2018-12-04T12:06:15.335Z,19.95
2018-12-04T12:07:20.398Z,19.92
2018-12-04T12:08:15.052Z,19.87
2018-12-04T12:09:15.125Z,19.94
2018-12-04T12:10:15.111Z,19.89
2018-12-04T12:11:15.191Z,19.90
2018-12-04T12:12:15.232Z,19.89
2018-12-04T12:13:15.500Z,19.92
2018-12-04T12:14:15.230Z,19.97
2018-12-04T12:15:17.950Z,19.90
2018-12-04T12:16:15.303Z,19.90
2018-12-04T12:17:15.381Z,19.90
2018-12-04T12:18:15.408Z,19.94
2018-12-04T12:19:15.394Z,19.92
2018-12-04T12:20:15.476Z,19.97
2018-12-04T12:21:15.504Z,19.97
2018-12-04T12:22:15.540Z,19.90
2018-12-04T12:23:15.524Z,19.94
2018-12-04T12:24:15.552Z,19.94
2018-12-04T12:25:15.592Z,19.92
2018-12-04T12:26:15.614Z,19.89
2018-12-04T12:27:15.712Z,19.94
2018-12-04T12:28:15.677Z,19.89
2018-12-04T12:29:15.768Z,19.90
2018-12-04T12:30:15.894Z,19.94
2018-12-04T12:31:15.830Z,19.92
2018-12-04T12:32:16.127Z,19.86
2018-12-04T12:33:15.896Z,19.94
2018-12-04T12:34:16.021Z,19.90
2018-12-04T12:35:15.962Z,19.90
2018-12-04T12:36:15.984Z,19.89
2018-12-04T12:38:16.050Z,19.97
2018-12-04T12:39:16.032Z,19.95
2018-12-04T12:40:16.116Z,19.85
2018-12-04T12:41:16.151Z,19.89
2018-12-04T12:42:16.137Z,19.94
2018-12-04T12:43:16.156Z,19.90
2018-12-04T12:44:16.246Z,19.90
2018-12-04T12:45:16.225Z,19.92
2018-12-04T12:46:16.306Z,19.97
2018-12-04T12:47:16.289Z,19.83
2018-12-04T12:48:16.373Z,19.85
2018-12-04T12:49:16.394Z,19.92
2018-12-04T12:50:16.380Z,19.89
2018-12-04T12:51:16.767Z,19.92
2018-12-04T12:53:16.471Z,19.92
2018-12-04T12:54:16.520Z,19.90
2018-12-04T12:55:16.538Z,19.90
2018-12-04T12:56:16.624Z,19.90
2018-12-04T12:57:16.604Z,19.89
2018-12-04T12:58:16.684Z,19.97
2018-12-04T12:59:16.671Z,19.90
2018-12-04T13:00:16.705Z,19.87
2018-12-04T13:01:16.725Z,19.94
2018-12-04T13:02:16.822Z,19.89
2018-12-04T13:03:17.156Z,19.98
2018-12-04T13:04:16.825Z,19.86
2018-12-04T13:05:16.909Z,19.89
2018-12-04T13:06:16.885Z,19.90
2018-12-04T13:07:16.914Z,19.90
2018-12-04T13:08:17.065Z,19.94
2018-12-04T13:09:16.979Z,19.94
2018-12-04T13:10:17.361Z,19.89
2018-12-04T13:11:17.106Z,19.90
2018-12-04T13:12:17.132Z,19.95
2018-12-04T13:13:17.170Z,19.90
2018-12-04T13:14:17.145Z,19.89
2018-12-04T13:15:17.182Z,19.89
2018-12-04T13:16:17.240Z,19.92
2018-12-04T13:17:17.281Z,19.92
2018-12-04T13:18:17.268Z,19.89
2018-12-04T13:19:17.347Z,19.89
2018-12-04T13:20:17.336Z,19.92
2018-12-04T13:21:17.358Z,19.90
2018-12-04T13:22:17.465Z,19.94
2018-12-04T13:23:17.725Z,19.92
2018-12-04T13:24:17.466Z,19.86
2018-12-04T13:25:17.541Z,19.89
2018-12-04T13:26:17.526Z,19.95
2018-12-04T13:27:17.606Z,19.94
2018-12-04T13:28:17.697Z,19.97
2018-12-04T13:29:17.968Z,19.92
2018-12-04T13:30:17.650Z,19.92
2018-12-04T13:31:17.676Z,19.86
2018-12-04T13:32:17.761Z,19.90
2018-12-04T13:33:17.749Z,19.87
2018-12-04T13:34:17.830Z,19.87
2018-12-04T13:35:18.107Z,19.89
2018-12-04T13:36:17.848Z,19.85
2018-12-04T13:37:17.878Z,19.87
2018-12-04T13:38:17.947Z,19.89
2018-12-04T13:39:17.937Z,19.89
2018-12-04T13:40:17.982Z,19.95
2018-12-04T13:41:18.302Z,19.92
2018-12-04T13:42:18.083Z,19.90
2018-12-04T13:43:18.112Z,19.85
2018-12-04T13:44:18.108Z,19.87
2018-12-04T13:45:18.136Z,19.86
2018-12-04T13:46:18.204Z,19.94
2018-12-04T13:47:18.191Z,19.87
2018-12-04T13:48:18.518Z,19.89
2018-12-04T13:49:18.254Z,19.85
2018-12-04T13:50:18.333Z,19.95
2018-12-04T13:51:18.372Z,19.90
2018-12-04T13:52:18.366Z,19.86
2018-12-04T13:53:18.396Z,19.89
2018-12-04T13:54:18.415Z,19.87
2018-12-04T13:55:18.802Z,19.86
2018-12-04T13:56:18.527Z,19.85
2018-12-04T13:57:18.511Z,19.92
2018-12-04T13:58:18.542Z,19.94
2018-12-04T13:59:18.570Z,19.94
2018-12-04T14:00:18.648Z,19.97
2018-12-04T14:01:18.637Z,19.97
2018-12-04T14:02:19.047Z,19.90
2018-12-04T14:03:18.765Z,19.92
2018-12-04T14:04:18.748Z,19.90
2018-12-04T14:05:18.779Z,19.89
2018-12-04T14:06:18.802Z,19.92
2018-12-04T14:07:18.900Z,19.92
2018-12-04T14:08:18.951Z,19.98
2018-12-04T14:09:19.217Z,19.92
2018-12-04T14:10:18.965Z,19.92
2018-12-04T14:11:18.951Z,19.90
2018-12-04T14:12:19.002Z,19.94
2018-12-04T14:13:19.067Z,19.92
2018-12-04T14:14:19.095Z,19.97
2018-12-04T14:15:19.096Z,19.97
2018-12-04T14:16:19.428Z,19.89
2018-12-04T14:17:19.158Z,19.94
2018-12-04T14:18:19.172Z,19.92
2018-12-04T14:19:19.263Z,19.89
2018-12-04T14:20:19.255Z,19.90
2018-12-04T14:21:19.291Z,19.87
2018-12-04T14:22:19.370Z,19.95
2018-12-04T14:23:19.327Z,19.97
2018-12-04T14:24:19.391Z,19.95
2018-12-04T14:25:19.451Z,19.95
2018-12-04T14:26:19.476Z,19.90
2018-12-04T14:27:19.510Z,19.95
2018-12-04T14:28:19.490Z,19.90
2018-12-04T14:29:19.872Z,19.94
2018-12-04T14:30:19.573Z,19.92
2018-12-04T14:31:19.638Z,19.89
2018-12-04T14:32:19.664Z,19.89
2018-12-04T14:33:19.699Z,19.87